Time;durP1;ratioP1;P1;durP2;ratioP2;P2;SDS_P1;SDS_P2;PMS_P1;PMS_P2;Temp;Humidity;BMP_temperature;BMP_pressure;BME280_temperature;BME280_humidity;BME280_pressure;Samples;Min_cycle;Max_cycle;Signal;HPM_P1;HPM_P2
2021/01/13 00:00:11;;;;;;;1.67;0.30;;;;;;;-4.23;87.33;99476.22;5030139;28;20631;-72
2021/01/13 00:02:41;;;;;;;0.43;0.43;;;;;;;-4.22;87.17;99477.94;5028347;28;20245;-72
2021/01/13 00:05:11;;;;;;;2.83;0.57;;;;;;;-4.32;86.99;99484.31;5028548;28;20202;-71
2021/01/13 00:07:38;;;;;;;0.30;0.30;;;;;;;-4.34;87.07;99490.50;5025083;28;20205;-73
2021/01/13 00:10:06;;;;;;;0.67;0.60;;;;;;;-4.33;87.07;99492.22;5028373;28;20194;-72
2021/01/13 00:12:34;;;;;;;0.30;0.30;;;;;;;-4.35;87.26;99494.88;5028946;28;20627;-73
2021/01/13 00:15:02;;;;;;;0.40;0.40;;;;;;;-4.98;87.43;99406.69;5021807;28;20214;-73
2021/01/13 00:17:30;;;;;;;0.50;0.50;;;;;;;-4.42;87.22;99496.81;5024702;28;20206;-72
2021/01/13 00:19:57;;;;;;;0.67;0.67;;;;;;;-4.47;87.32;99495.22;5030581;28;20202;-72
2021/01/13 00:22:25;;;;;;;0.33;0.33;;;;;;;-4.50;87.65;99488.31;5030102;28;20282;-72
2021/01/13 00:24:52;;;;;;;0.60;0.60;;;;;;;-4.48;87.43;99496.13;5030489;28;20201;-72
2021/01/13 00:27:21;;;;;;;0.20;0.20;;;;;;;-4.53;87.04;99493.66;5029523;28;20206;-72
2021/01/13 00:29:49;;;;;;;0.37;0.33;;;;;;;-4.56;87.16;99493.72;5031351;28;20214;-72
2021/01/13 00:32:17;;;;;;;1.60;0.97;;;;;;;-5.05;86.78;99431.31;5026669;28;20261;-72
2021/01/13 00:34:45;;;;;;;0.53;0.50;;;;;;;-4.64;87.20;99503.53;5028352;28;20827;-71
2021/01/13 00:37:13;;;;;;;1.03;0.90;;;;;;;-4.66;87.33;99509.69;5027525;28;20234;-72
2021/01/13 00:39:42;;;;;;;1.20;0.80;;;;;;;-4.63;87.88;99513.09;5029778;28;20598;-72
2021/01/13 00:42:09;;;;;;;0.40;0.40;;;;;;;-4.61;87.74;99507.81;5025222;28;20200;-72
2021/01/13 00:44:36;;;;;;;0.63;0.60;;;;;;;-4.64;87.94;99498.28;5025089;28;20238;-71
2021/01/13 00:47:03;;;;;;;0.80;0.80;;;;;;;-4.56;87.81;99516.44;5013273;28;20199;-71
2021/01/13 00:49:31;;;;;;;2.63;0.77;;;;;;;-4.61;87.77;99505.19;5016308;28;20282;-72
2021/01/13 00:51:58;;;;;;;0.50;0.50;;;;;;;-4.69;86.96;99508.88;5016419;28;20214;-72
2021/01/13 00:54:25;;;;;;;1.60;0.57;;;;;;;-4.67;87.11;99514.06;5023407;28;20222;-71
2021/01/13 00:56:54;;;;;;;1.77;0.67;;;;;;;-4.69;87.07;99518.50;5031332;28;20225;-71
2021/01/13 00:59:22;;;;;;;0.77;0.67;;;;;;;-4.73;87.46;99512.50;5028712;28;20202;-71
2021/01/13 01:01:49;;;;;;;4.57;0.53;;;;;;;-4.75;86.92;99519.53;5026083;28;20209;-71
2021/01/13 01:04:16;;;;;;;0.20;0.20;;;;;;;-4.79;87.08;99527.50;5040171;28;20201;-72
2021/01/13 01:06:47;;;;;;;0.33;0.33;;;;;;;-4.80;87.17;99523.16;5045859;28;20213;-71
2021/01/13 01:09:14;;;;;;;1.97;0.83;;;;;;;-4.77;87.31;99530.94;5051151;28;20210;-71
2021/01/13 01:11:41;;;;;;;1.03;0.80;;;;;;;-4.76;87.51;99537.88;5012177;28;20203;-71
2021/01/13 01:14:10;;;;;;;0.40;0.40;;;;;;;-4.78;87.32;99540.53;5011492;28;20227;-71
2021/01/13 01:16:39;;;;;;;0.93;0.67;;;;;;;-4.78;87.25;99545.78;5034069;28;20208;-71
2021/01/13 01:19:08;;;;;;;0.73;0.70;;;;;;;-4.80;87.57;99544.97;5049244;28;20555;-71
2021/01/13 01:21:39;;;;;;;0.20;0.20;;;;;;;-4.80;87.41;99547.59;5042929;28;20205;-72
2021/01/13 01:24:07;;;;;;;1.30;0.33;;;;;;;-4.85;87.19;99559.94;5016087;28;20191;-72
2021/01/13 01:26:42;;;;;;;0.40;0.40;;;;;;;-4.91;86.88;99561.81;5026585;28;20198;-72
2021/01/13 01:29:11;;;;;;;0.73;0.73;;;;;;;-4.91;87.20;99560.06;5027157;28;20280;-72
2021/01/13 01:31:38;;;;;;;0.30;0.30;;;;;;;-5.25;87.13;99502.44;5033173;28;20226;-72
2021/01/13 01:34:06;;;;;;;7.13;0.83;;;;;;;-4.90;87.51;99561.78;5030925;28;20242;-72
2021/01/13 01:36:33;;;;;;;0.50;0.50;;;;;;;-4.95;87.22;99562.78;5012552;28;20222;-71
2021/01/13 01:39:01;;;;;;;0.20;0.20;;;;;;;-5.05;86.06;99580.47;5021834;28;20195;-72
2021/01/13 01:41:28;;;;;;;2.43;0.40;;;;;;;-5.06;86.60;99577.00;5027279;28;20676;-71
2021/01/13 01:43:55;;;;;;;3.63;0.40;;;;;;;-5.10;86.75;99585.81;5031850;28;20656;-71
2021/01/13 01:46:25;;;;;;;0.37;0.37;;;;;;;-5.06;87.11;99589.22;5031887;28;20581;-71
2021/01/13 01:48:53;;;;;;;0.40;0.40;;;;;;;-5.01;87.59;99592.59;5025780;28;20213;-72
2021/01/13 01:51:23;;;;;;;0.50;0.50;;;;;;;-4.97;87.37;99589.00;5029877;28;20194;-72
2021/01/13 01:54:02;;;;;;;0.40;0.40;;;;;;;-4.97;87.74;99601.22;5052218;28;20300;-72
2021/01/13 01:56:38;;;;;;;0.30;0.30;;;;;;;-4.98;87.97;99605.59;5012215;28;20298;-71
2021/01/13 01:59:07;;;;;;;2.00;0.47;;;;;;;-4.93;88.02;99598.50;5011981;28;20198;-71
2021/01/13 02:01:37;;;;;;;0.17;0.17;;;;;;;-4.88;88.06;99607.13;5034056;28;20228;-72
2021/01/13 02:04:16;;;;;;;1.50;0.60;;;;;;;-4.86;88.73;99597.47;5020656;28;20202;-71
2021/01/13 02:07:19;;;;;;;7.33;0.67;;;;;;;-4.76;88.63;99614.66;5060026;28;20211;-71
2021/01/13 02:09:46;;;;;;;0.30;0.30;;;;;;;-4.78;88.44;99603.38;5027841;28;20202;-71
2021/01/13 02:12:20;;;;;;;0.30;0.30;;;;;;;-4.72;88.26;99603.22;5015683;28;20676;-71
2021/01/13 02:14:47;;;;;;;0.40;0.40;;;;;;;-4.68;88.60;99607.47;5030008;28;20205;-71
2021/01/13 02:17:21;;;;;;;0.13;0.13;;;;;;;-4.64;88.78;99607.41;5038691;28;20198;-71
2021/01/13 02:20:15;;;;;;;0.20;0.20;;;;;;;-4.80;87.47;99614.78;5020229;28;20207;-71
2021/01/13 02:23:02;;;;;;;0.20;0.20;;;;;;;-4.75;87.71;99619.00;5026273;28;20540;-72
2021/01/13 02:26:05;;;;;;;0.20;0.20;;;;;;;-4.72;88.10;99613.69;5029379;28;20205;-71
2021/01/13 02:28:44;;;;;;;0.43;0.43;;;;;;;-4.65;88.55;99616.16;5025042;28;20673;-71
2021/01/13 02:31:49;;;;;;;0.47;0.40;;;;;;;-4.63;88.48;99612.59;5034146;28;20205;-72
2021/01/13 02:34:27;;;;;;;2.33;0.47;;;;;;;-4.56;88.56;99619.44;5030854;28;20236;-71
2021/01/13 02:37:41;;;;;;;0.33;0.33;;;;;;;-4.52;88.75;99626.31;5025271;28;20284;-71
2021/01/13 02:40:16;;;;;;;3.50;0.30;;;;;;;-4.60;88.21;99620.38;5015645;28;20206;-72
2021/01/13 02:42:58;;;;;;;0.20;0.20;;;;;;;-4.60;88.36;99617.75;5017231;28;20221;-72
2021/01/13 02:45:27;;;;;;;7.63;0.70;;;;;;;-4.78;87.64;99613.84;5032404;28;20207;-71
2021/01/13 02:48:05;;;;;;;0.60;0.60;;;;;;;-4.66;87.90;99622.28;5038053;28;20205;-72
2021/01/13 02:50:35;;;;;;;0.53;0.53;;;;;;;-4.68;87.92;99635.44;5017787;28;20228;-71
2021/01/13 02:53:21;;;;;;;0.47;0.37;;;;;;;-4.86;87.87;99592.25;5030801;28;20222;-72
2021/01/13 02:56:04;;;;;;;0.10;0.10;;;;;;;-4.58;88.37;99630.84;5018703;28;20234;-71
2021/01/13 02:58:36;;;;;;;0.57;0.57;;;;;;;-4.55;88.53;99625.53;5024301;28;20205;-71
2021/01/13 03:01:07;;;;;;;3.50;0.40;;;;;;;-4.53;88.40;99626.34;5033453;28;20210;-71
2021/01/13 03:03:36;;;;;;;0.43;0.43;;;;;;;-4.80;86.95;99626.13;5026518;28;20310;-72
2021/01/13 03:06:06;;;;;;;0.30;0.30;;;;;;;-4.92;86.10;99644.72;5029897;28;20215;-72
2021/01/13 03:08:43;;;;;;;0.10;0.10;;;;;;;-4.90;86.15;99649.91;5029410;28;20238;-72
2021/01/13 03:11:14;;;;;;;0.00;0.00;;;;;;;-4.87;86.98;99650.72;5030145;28;20879;-72
2021/01/13 03:13:44;;;;;;;0.20;0.20;;;;;;;-4.83;87.44;99652.38;5028368;28;21194;-71
2021/01/13 03:16:13;;;;;;;5.40;0.50;;;;;;;-4.86;87.38;99655.06;5029181;28;20210;-72
2021/01/13 03:19:04;;;;;;;0.10;0.10;;;;;;;-4.94;86.90;99659.59;5035495;28;20558;-72
2021/01/13 03:21:40;;;;;;;0.40;0.40;;;;;;;-5.08;86.08;99666.91;5028320;28;20686;-72
2021/01/13 03:24:14;;;;;;;0.43;0.43;;;;;;;-5.01;86.99;99668.47;5032495;28;20186;-72
2021/01/13 03:26:45;;;;;;;0.20;0.20;;;;;;;-5.08;86.45;99672.13;5030015;28;20202;-71
2021/01/13 03:29:20;;;;;;;0.30;0.27;;;;;;;-5.16;87.23;99660.97;5032189;28;20198;-72
2021/01/13 03:32:06;;;;;;;0.57;0.40;;;;;;;-5.13;86.61;99674.00;5032300;28;20253;-71
2021/01/13 03:34:40;;;;;;;0.40;0.30;;;;;;;-5.16;86.57;99674.06;5030391;28;20241;-72
2021/01/13 03:37:15;;;;;;;0.33;0.30;;;;;;;-5.21;86.21;99681.97;5026983;28;20213;-71
2021/01/13 03:39:43;;;;;;;1.30;0.97;;;;;;;-5.34;86.03;99681.38;5032840;28;20205;-72
2021/01/13 03:42:14;;;;;;;0.20;0.20;;;;;;;-5.25;86.88;99689.94;5033543;28;20679;-71
2021/01/13 03:44:42;;;;;;;0.30;0.30;;;;;;;-5.17;87.43;99691.50;5031746;28;20213;-71
2021/01/13 03:47:45;;;;;;;0.20;0.20;;;;;;;-5.19;87.20;99680.22;5033066;28;20208;-71
2021/01/13 03:50:18;;;;;;;81.43;34.80;;;;;;;-5.19;86.81;99684.59;5001507;28;20308;-71
2021/01/13 03:52:55;;;;;;;1.40;1.30;;;;;;;-5.15;87.18;99691.47;5030460;28;20230;-71
2021/01/13 03:55:24;;;;;;;1.80;1.53;;;;;;;-5.11;87.71;99691.38;5030864;28;20226;-71
2021/01/13 03:58:13;;;;;;;1.60;0.80;;;;;;;-5.02;88.23;99691.16;5029948;28;20343;-71
2021/01/13 04:01:00;;;;;;;1.70;0.40;;;;;;;-5.00;87.94;99691.13;5030801;28;20202;-71
2021/01/13 04:03:30;;;;;;;1.17;1.07;;;;;;;-4.94;88.23;99691.00;5030663;28;20206;-71
2021/01/13 04:06:09;;;;;;;0.53;0.53;;;;;;;-4.91;88.14;99701.41;5020715;28;20205;-71
2021/01/13 04:08:39;;;;;;;0.80;0.80;;;;;;;-4.92;87.60;99702.28;5024499;28;20289;-72
2021/01/13 04:11:09;;;;;;;4.07;1.13;;;;;;;-4.96;87.78;99705.88;5025504;28;20214;-71
2021/01/13 04:13:42;;;;;;;0.50;0.50;;;;;;;-4.91;87.62;99700.53;5030278;28;20297;-71
2021/01/13 04:16:11;;;;;;;1.30;0.80;;;;;;;-4.88;87.64;99710.97;5031198;28;20206;-71
2021/01/13 04:18:39;;;;;;;1.27;1.23;;;;;;;-4.91;88.10;99690.94;5024852;28;20269;-71
2021/01/13 04:21:11;;;;;;;4.70;0.73;;;;;;;-4.74;88.58;99708.88;5032037;28;20206;-71
2021/01/13 04:23:39;;;;;;;1.80;1.07;;;;;;;-4.68;88.50;99721.84;5030639;28;20278;-71
2021/01/13 04:26:06;;;;;;;0.57;0.47;;;;;;;-4.62;88.81;99718.22;5021795;28;20203;-71
2021/01/13 04:28:34;;;;;;;1.77;0.43;;;;;;;-4.57;88.72;99716.38;5029933;28;20645;-71
2021/01/13 04:31:03;;;;;;;0.30;0.30;;;;;;;-4.50;88.73;99723.19;5030802;28;20202;-71
2021/01/13 04:33:31;;;;;;;1.03;0.87;;;;;;;-4.46;89.11;99724.81;5031101;28;20218;-71
2021/01/13 04:35:59;;;;;;;0.60;0.60;;;;;;;-4.41;89.27;99730.81;5026047;28;20278;-71
2021/01/13 04:38:30;;;;;;;0.57;0.53;;;;;;;-4.42;88.85;99729.09;5029999;28;20582;-71
2021/01/13 04:41:08;;;;;;;0.57;0.43;;;;;;;-4.35;89.05;99733.28;5023615;28;20302;-71
2021/01/13 04:43:54;;;;;;;10.43;0.83;;;;;;;-4.34;88.71;99728.91;5024223;28;20229;-71
2021/01/13 04:46:32;;;;;;;1.60;0.63;;;;;;;-4.35;88.64;99722.81;5021579;28;20887;-71
2021/01/13 04:49:08;;;;;;;0.97;0.67;;;;;;;-4.25;88.70;99733.94;5030945;28;20596;-71
2021/01/13 04:51:36;;;;;;;0.40;0.30;;;;;;;-4.17;89.14;99738.09;5029400;28;20308;-71
2021/01/13 04:54:11;;;;;;;2.37;0.60;;;;;;;-4.29;89.48;99712.16;5029275;28;20234;-71
2021/01/13 04:56:52;;;;;;;2.30;0.90;;;;;;;-4.03;89.35;99744.75;5026147;28;20193;-71
2021/01/13 05:00:04;;;;;;;0.40;0.40;;;;;;;-3.92;89.43;99750.59;5027749;28;20230;-72
2021/01/13 05:03:06;;;;;;;0.37;0.37;;;;;;;-3.82;89.80;99754.69;5025578;28;20310;-72
2021/01/13 05:05:46;;;;;;;1.57;1.00;;;;;;;-3.75;89.72;99748.41;5027564;28;20205;-72
2021/01/13 05:08:26;;;;;;;0.70;0.70;;;;;;;-3.67;90.15;99751.69;5029150;28;20198;-72
2021/01/13 05:11:08;;;;;;;0.60;0.60;;;;;;;-3.55;90.24;99761.84;5028550;28;20203;-72
2021/01/13 05:13:38;;;;;;;3.13;2.47;;;;;;;-3.43;90.53;99763.28;5027330;28;20218;-72
2021/01/13 05:16:11;;;;;;;1.47;1.30;;;;;;;-3.32;90.53;99763.00;5030898;28;20198;-72
2021/01/13 05:18:53;;;;;;;1.97;1.80;;;;;;;-3.25;90.43;99756.69;5029314;28;20213;-71
2021/01/13 05:21:22;;;;;;;0.83;0.63;;;;;;;-3.17;90.57;99766.06;5018773;28;20199;-71
2021/01/13 05:23:51;;;;;;;0.40;0.40;;;;;;;-3.07;90.84;99766.66;5023618;28;20257;-72
2021/01/13 05:26:21;;;;;;;0.60;0.60;;;;;;;-3.02;90.63;99764.78;5026389;28;20280;-72
2021/01/13 05:29:37;;;;;;;1.70;1.50;;;;;;;-2.93;90.73;99768.91;5023954;28;20239;-72
2021/01/13 05:32:06;;;;;;;3.50;1.00;;;;;;;-2.83;90.98;99779.09;5019259;28;20549;-71
2021/01/13 05:34:36;;;;;;;1.30;0.67;;;;;;;-2.76;90.64;99776.28;5022357;28;20254;-72
2021/01/13 05:37:17;;;;;;;1.87;0.63;;;;;;;-2.72;90.51;99780.56;5020977;28;20201;-71
2021/01/13 05:39:47;;;;;;;1.10;0.87;;;;;;;-2.69;90.33;99783.09;5017673;28;20218;-71
2021/01/13 05:42:18;;;;;;;2.40;0.90;;;;;;;-2.67;90.20;99791.78;5020638;28;20577;-71
2021/01/13 05:44:47;;;;;;;1.53;1.03;;;;;;;-2.63;90.34;99793.41;5024270;28;20240;-71
2021/01/13 05:47:53;;;;;;;1.97;1.40;;;;;;;-2.62;90.02;99795.13;5022606;28;20241;-71
2021/01/13 05:50:21;;;;;;;1.03;0.83;;;;;;;-2.72;90.08;99764.78;5025849;28;20693;-71
2021/01/13 05:52:51;;;;;;;2.33;0.73;;;;;;;-2.47;90.18;99799.06;5018570;28;20191;-71
2021/01/13 05:55:23;;;;;;;0.60;0.60;;;;;;;-2.45;90.25;99798.09;5023769;28;20257;-72
2021/01/13 05:57:56;;;;;;;1.40;0.97;;;;;;;-2.45;90.04;99790.22;5020438;28;20207;-71
2021/01/13 06:00:24;;;;;;;6.97;5.00;;;;;;;-2.50;89.77;99800.88;5022259;28;20210;-71
2021/01/13 06:02:58;;;;;;;1.30;1.20;;;;;;;-2.42;90.01;99792.78;5021292;28;20202;-71
2021/01/13 06:05:27;;;;;;;0.60;0.50;;;;;;;-2.40;89.72;99800.63;5020873;28;20216;-71
2021/01/13 06:07:57;;;;;;;1.23;0.73;;;;;;;-2.40;89.86;99796.22;5020408;28;20610;-71
2021/01/13 06:10:28;;;;;;;0.57;0.50;;;;;;;-2.39;89.86;99804.97;5022792;28;20209;-72
2021/01/13 06:12:59;;;;;;;0.73;0.40;;;;;;;-2.40;89.74;99801.47;5022060;28;20207;-71
2021/01/13 06:15:27;;;;;;;0.37;0.37;;;;;;;-2.46;89.56;99800.78;5024737;28;20241;-71
2021/01/13 06:17:56;;;;;;;0.60;0.60;;;;;;;-2.45;89.42;99811.25;5022869;28;20201;-71
2021/01/13 06:20:24;;;;;;;0.70;0.70;;;;;;;-2.44;89.22;99815.63;5024335;28;20930;-71
2021/01/13 06:22:53;;;;;;;5.20;0.83;;;;;;;-2.44;89.39;99815.63;5022219;28;20546;-71
2021/01/13 06:25:22;;;;;;;1.47;0.57;;;;;;;-2.48;89.33;99824.47;5018779;28;20289;-72
2021/01/13 06:28:35;;;;;;;1.97;1.80;;;;;;;-2.44;89.45;99827.91;5024117;28;20582;-71
2021/01/13 06:31:07;;;;;;;0.30;0.30;;;;;;;-2.38;89.69;99823.31;5018243;28;20678;-73
2021/01/13 06:33:39;;;;;;;0.33;0.33;;;;;;;-2.40;89.73;99808.50;5016414;28;20249;-72
2021/01/13 06:36:20;;;;;;;0.53;0.37;;;;;;;-2.31;89.89;99826.63;5019983;28;20278;-72
2021/01/13 06:38:54;;;;;;;7.90;0.40;;;;;;;-2.31;90.01;99832.72;5015109;28;20281;-72
2021/01/13 06:41:21;;;;;;;2.00;0.47;;;;;;;-2.27;89.63;99850.13;5022267;28;20286;-72
2021/01/13 06:43:59;;;;;;;0.60;0.60;;;;;;;-2.20;90.13;99842.91;5018735;28;20195;-72
2021/01/13 06:46:28;;;;;;;0.50;0.50;;;;;;;-2.47;89.84;99799.91;5017988;28;20779;-72
2021/01/13 06:49:10;;;;;;;0.30;0.23;;;;;;;-2.14;89.93;99855.00;5016215;28;20286;-72
2021/01/13 06:51:42;;;;;;;0.87;0.83;;;;;;;-2.07;89.97;99851.31;5031577;28;20198;-72
2021/01/13 06:54:12;;;;;;;0.77;0.23;;;;;;;-2.04;90.33;99851.22;5018747;28;20314;-72
2021/01/13 06:56:47;;;;;;;0.47;0.33;;;;;;;-1.97;89.87;99863.25;5020086;28;20297;-72
2021/01/13 06:59:15;;;;;;;0.40;0.33;;;;;;;-1.92;90.24;99871.84;5020235;28;20614;-71
2021/01/13 07:01:53;;;;;;;1.50;0.97;;;;;;;-1.89;89.94;99871.75;5019527;28;20297;-72
2021/01/13 07:04:21;;;;;;;0.40;0.40;;;;;;;-1.90;89.64;99888.44;5022317;28;20649;-72
2021/01/13 07:06:58;;;;;;;39.03;24.30;;;;;;;-1.90;90.15;99868.28;5018037;28;20210;-72
2021/01/13 07:09:35;;;;;;;13.27;7.03;;;;;;;-1.84;89.91;99883.00;5015402;28;20210;-72
2021/01/13 07:12:14;;;;;;;1.43;1.00;;;;;;;-1.87;90.12;99885.72;5047645;28;21836;-72
2021/01/13 07:14:44;;;;;;;0.40;0.40;;;;;;;-1.76;90.50;99886.28;5020603;28;20665;-72
2021/01/13 07:17:14;;;;;;;6.90;3.03;;;;;;;-1.79;90.40;99889.00;5023717;28;20194;-72
2021/01/13 07:19:45;;;;;;;1.67;1.50;;;;;;;-1.74;90.88;99897.59;5023636;28;20203;-72
2021/01/13 07:22:14;;;;;;;0.90;0.90;;;;;;;-1.76;90.74;99904.69;5017875;28;20206;-72
2021/01/13 07:24:43;;;;;;;0.20;0.20;;;;;;;-1.77;90.94;99888.94;5021775;28;20210;-73
2021/01/13 07:27:11;;;;;;;2.03;0.60;;;;;;;-1.64;90.78;99911.31;5022043;28;20241;-73
2021/01/13 07:29:39;;;;;;;1.60;0.87;;;;;;;-1.70;90.59;99904.50;5024463;28;21446;-72
2021/01/13 07:32:07;;;;;;;0.77;0.67;;;;;;;-1.52;90.54;99920.63;5027134;28;20226;-72
2021/01/13 07:34:37;;;;;;;0.60;0.60;;;;;;;-1.46;90.46;99925.69;5022672;28;20238;-72
2021/01/13 07:37:08;;;;;;;0.70;0.70;;;;;;;-1.44;90.08;99918.59;5014028;28;20195;-72
2021/01/13 07:40:11;;;;;;;0.50;0.50;;;;;;;-1.27;90.54;99929.41;5012351;28;20200;-72
2021/01/13 07:42:41;;;;;;;0.70;0.70;;;;;;;-1.19;90.54;99926.56;5012462;28;20277;-73
2021/01/13 07:45:12;;;;;;;0.60;0.60;;;;;;;-1.44;90.14;99887.88;5023332;28;20226;-73
2021/01/13 07:48:33;;;;;;;0.60;0.60;;;;;;;-1.22;89.78;99929.25;5019744;28;20206;-72
2021/01/13 07:51:07;;;;;;;0.80;0.70;;;;;;;-1.13;90.09;99931.63;5031004;28;20605;-72
2021/01/13 07:53:38;;;;;;;0.80;0.80;;;;;;;-1.37;89.20;99925.38;5012485;28;20218;-72
2021/01/13 07:56:08;;;;;;;0.60;0.60;;;;;;;-1.29;89.42;99936.50;5012538;28;20616;-72
2021/01/13 07:58:36;;;;;;;2.10;1.27;;;;;;;-1.67;88.42;99896.50;5027018;28;20195;-72
2021/01/13 08:01:49;;;;;;;0.87;0.40;;;;;;;-1.54;88.48;99927.69;5031422;28;20192;-72
2021/01/13 08:05:13;;;;;;;3.33;0.60;;;;;;;-1.69;88.08;99932.53;5032089;28;20206;-72
2021/01/13 08:07:42;;;;;;;0.83;0.70;;;;;;;-1.79;88.22;99933.72;5031982;28;20202;-72
2021/01/13 08:10:29;;;;;;;0.97;0.90;;;;;;;-1.87;88.25;99943.59;5030581;28;20207;-72
2021/01/13 08:13:38;;;;;;;0.70;0.37;;;;;;;-1.96;87.91;99954.41;5026802;28;20209;-72
2021/01/13 08:16:45;;;;;;;0.47;0.47;;;;;;;-2.26;88.06;99920.22;5030471;28;20578;-72
2021/01/13 08:20:02;;;;;;;0.40;0.40;;;;;;;-2.10;87.32;99951.34;5022132;28;20211;-72
2021/01/13 08:22:30;;;;;;;5.20;0.90;;;;;;;-2.19;87.76;99955.94;5024146;28;20713;-73
2021/01/13 08:25:02;;;;;;;0.60;0.60;;;;;;;-2.13;87.38;99967.19;5031596;28;20198;-72
2021/01/13 08:27:30;;;;;;;0.60;0.53;;;;;;;-2.11;87.99;99968.88;5030698;28;20574;-72
2021/01/13 08:29:58;;;;;;;1.10;1.03;;;;;;;-2.23;87.67;99967.44;5029219;28;20202;-72
2021/01/13 08:32:31;;;;;;;0.60;0.60;;;;;;;-2.20;88.09;99977.00;5030529;28;20210;-73
2021/01/13 08:35:07;;;;;;;4.53;0.60;;;;;;;-2.24;87.86;99972.75;5031400;28;20596;-72
2021/01/13 08:37:35;;;;;;;0.47;0.40;;;;;;;-2.21;88.52;99970.88;5031960;28;20206;-72
2021/01/13 08:40:28;;;;;;;0.87;0.70;;;;;;;-2.12;88.31;99977.69;5031827;28;20286;-72
2021/01/13 08:43:07;;;;;;;0.70;0.70;;;;;;;-2.37;88.00;99955.59;5031328;28;20636;-72
2021/01/13 08:45:36;;;;;;;1.87;1.10;;;;;;;-2.12;88.34;99995.22;5030242;28;20203;-72
2021/01/13 08:48:10;;;;;;;1.30;0.90;;;;;;;-2.16;88.64;99997.03;5031321;28;20638;-72
2021/01/13 08:50:39;;;;;;;1.33;0.73;;;;;;;-2.07;88.86;100003.84;5031180;28;20223;-72
2021/01/13 08:53:07;;;;;;;1.30;0.77;;;;;;;-2.06;88.30;100008.19;5030148;28;20196;-72
2021/01/13 08:55:36;;;;;;;0.80;0.80;;;;;;;-2.01;88.54;100006.28;5031303;28;20689;-72
2021/01/13 08:58:05;;;;;;;1.30;0.77;;;;;;;-2.03;88.03;100010.72;5028144;28;20198;-73
2021/01/13 09:00:34;;;;;;;0.87;0.60;;;;;;;-2.01;88.15;100008.91;5030528;28;20691;-72
2021/01/13 09:03:07;;;;;;;2.33;0.97;;;;;;;-1.97;88.71;100021.06;5031145;28;20562;-72
2021/01/13 09:05:36;;;;;;;0.70;0.70;;;;;;;-2.20;88.84;99982.25;5031089;28;20206;-72
2021/01/13 09:08:05;;;;;;;1.97;0.73;;;;;;;-1.97;88.47;100018.44;5030987;28;20277;-72
2021/01/13 09:10:51;;;;;;;0.60;0.60;;;;;;;-1.88;88.54;100015.53;5029474;28;20237;-72
2021/01/13 09:13:39;;;;;;;0.60;0.60;;;;;;;-1.82;88.58;100018.00;5029505;28;20203;-72
2021/01/13 09:16:35;;;;;;;1.60;1.00;;;;;;;-1.77;88.25;100031.03;5030827;28;20205;-72
2021/01/13 09:19:10;;;;;;;2.10;0.90;;;;;;;-1.67;88.43;100030.72;5030584;28;20203;-72
2021/01/13 09:21:40;;;;;;;1.63;0.80;;;;;;;-1.66;88.58;100016.63;5030784;28;20190;-72
2021/01/13 09:24:09;;;;;;;5.30;0.80;;;;;;;-1.57;88.66;100039.19;5030707;28;20270;-72
2021/01/13 09:26:39;;;;;;;0.80;0.80;;;;;;;-1.56;88.20;100031.25;5030652;28;20687;-72
2021/01/13 09:29:08;;;;;;;0.77;0.70;;;;;;;-1.47;88.08;100047.69;5028905;28;20215;-73
2021/01/13 09:31:37;;;;;;;2.63;0.87;;;;;;;-1.43;87.92;100054.59;5028084;28;20225;-72
2021/01/13 09:34:05;;;;;;;1.30;1.00;;;;;;;-1.35;88.16;100057.84;5019547;28;20608;-73
2021/01/13 09:36:57;;;;;;;0.70;0.70;;;;;;;-1.32;88.13;100060.38;5030306;28;20670;-72
2021/01/13 09:39:33;;;;;;;4.63;1.20;;;;;;;-1.46;88.16;100045.00;5030518;28;20187;-72
2021/01/13 09:42:02;;;;;;;0.70;0.70;;;;;;;-1.29;87.64;100073.44;5030266;28;20198;-72
2021/01/13 09:44:31;;;;;;;2.73;1.10;;;;;;;-1.30;87.62;100082.25;5030585;28;20197;-72
2021/01/13 09:47:00;;;;;;;0.77;0.60;;;;;;;-1.26;87.40;100086.50;5028484;28;20334;-72
2021/01/13 09:49:27;;;;;;;6.53;0.80;;;;;;;-1.26;87.42;100079.47;5030321;28;20598;-73
2021/01/13 09:51:55;;;;;;;2.63;1.07;;;;;;;-1.18;87.07;100088.94;5030302;28;20205;-70
2021/01/13 09:54:24;;;;;;;1.93;0.80;;;;;;;-1.19;87.05;100082.81;5030440;28;20223;-72
2021/01/13 09:56:56;;;;;;;0.73;0.73;;;;;;;-1.12;86.78;100091.38;5030233;28;20194;-72
2021/01/13 09:59:26;;;;;;;1.30;0.97;;;;;;;-1.11;86.62;100096.59;5029166;28;20200;-72
2021/01/13 10:01:58;;;;;;;1.80;0.67;;;;;;;-1.12;86.89;100102.78;5030002;28;20209;-72
2021/01/13 10:04:25;;;;;;;3.53;0.70;;;;;;;-1.06;86.58;100094.69;5030157;28;20568;-72
2021/01/13 10:06:56;;;;;;;1.10;0.90;;;;;;;-1.00;86.39;100098.91;5062084;28;20194;-72
2021/01/13 10:09:25;;;;;;;0.83;0.70;;;;;;;-1.01;86.46;100100.66;5030241;28;20663;-72
2021/01/13 10:11:54;;;;;;;0.60;0.60;;;;;;;-1.00;86.93;100102.38;5029878;28;20202;-73
2021/01/13 10:14:30;;;;;;;1.27;0.80;;;;;;;-0.97;86.89;100104.94;5029904;28;20221;-72
2021/01/13 10:16:58;;;;;;;3.83;0.60;;;;;;;-0.89;86.81;100099.44;5030127;28;20199;-72
2021/01/13 10:19:28;;;;;;;49.63;17.73;;;;;;;-0.87;86.70;100107.28;5028996;28;20569;-72
2021/01/13 10:21:57;;;;;;;0.93;0.73;;;;;;;-0.86;86.47;100103.75;5026049;28;20194;-72
2021/01/13 10:24:26;;;;;;;0.40;0.40;;;;;;;-0.74;86.65;100104.22;5030267;28;20209;-72
2021/01/13 10:26:59;;;;;;;11.33;0.97;;;;;;;-0.70;86.85;100110.25;5016061;28;20674;-72
2021/01/13 10:29:27;;;;;;;1.30;0.97;;;;;;;-0.75;87.31;100091.09;5029777;28;20211;-72
2021/01/13 10:31:58;;;;;;;0.40;0.40;;;;;;;-0.76;87.02;100105.16;5029555;28;20659;-72
2021/01/13 10:34:26;;;;;;;0.50;0.50;;;;;;;-0.62;87.27;100110.84;5029362;28;20247;-72
2021/01/13 10:36:53;;;;;;;1.83;0.80;;;;;;;-0.52;86.91;100112.28;5029668;28;20203;-71
2021/01/13 10:39:24;;;;;;;0.80;0.50;;;;;;;-0.48;86.92;100110.41;5028313;28;20618;-72
2021/01/13 10:41:52;;;;;;;0.83;0.77;;;;;;;-0.42;86.79;100108.44;5029533;28;20550;-72
2021/01/13 10:44:21;;;;;;;0.70;0.70;;;;;;;-0.39;86.89;100103.06;5029763;28;20227;-72
2021/01/13 10:46:54;;;;;;;1.80;0.70;;;;;;;-0.27;87.17;100100.94;5029487;28;20205;-72
2021/01/13 10:49:28;;;;;;;0.50;0.50;;;;;;;-0.24;86.32;100100.81;5057845;28;20264;-72
2021/01/13 10:51:57;;;;;;;0.93;0.60;;;;;;;-0.18;86.28;100101.47;5031589;28;20207;-72
2021/01/13 10:54:26;;;;;;;1.10;1.07;;;;;;;-0.19;86.42;100093.63;5034087;28;20674;-72
2021/01/13 10:56:56;;;;;;;0.37;0.37;;;;;;;-0.14;86.04;100097.81;5032529;28;20627;-72
2021/01/13 10:59:24;;;;;;;0.50;0.50;;;;;;;-0.34;85.67;100061.56;5033580;28;20550;-72
2021/01/13 11:01:53;;;;;;;0.20;0.20;;;;;;;-0.02;85.86;100109.69;5033376;28;20205;-72
2021/01/13 11:04:27;;;;;;;0.37;0.37;;;;;;;-0.02;85.64;100104.44;5018490;28;20197;-72
2021/01/13 11:07:06;;;;;;;2.33;0.40;;;;;;;0.06;85.50;100104.19;5033280;28;20273;-72
2021/01/13 11:09:34;;;;;;;1.60;0.40;;;;;;;-0.01;85.22;100100.88;5033287;28;20278;-72
2021/01/13 11:12:02;;;;;;;0.30;0.30;;;;;;;-0.21;85.69;100067.28;5033071;28;20208;-72
2021/01/13 11:14:43;;;;;;;0.20;0.20;;;;;;;0.08;85.32;100115.53;5061488;28;20227;-72
2021/01/13 11:17:13;;;;;;;0.43;0.30;;;;;;;0.03;85.05;100113.06;5033032;28;20214;-73
2021/01/13 11:19:43;;;;;;;0.40;0.40;;;;;;;0.03;85.06;100115.72;5032990;28;20765;-73
2021/01/13 11:22:11;;;;;;;1.53;0.90;;;;;;;-0.12;84.40;100113.59;5015779;28;20620;-72
2021/01/13 11:24:41;;;;;;;0.87;0.80;;;;;;;-0.19;84.84;100112.94;5013609;28;20196;-72
2021/01/13 11:27:12;;;;;;;0.70;0.40;;;;;;;-0.25;84.87;100115.78;5011975;28;20708;-72
2021/01/13 11:29:41;;;;;;;0.40;0.40;;;;;;;-0.23;84.48;100115.75;5021186;28;20203;-72
2021/01/13 11:32:13;;;;;;;0.53;0.43;;;;;;;-0.55;84.29;100101.84;5014919;28;20675;-72
2021/01/13 11:34:46;;;;;;;1.13;1.03;;;;;;;-0.47;84.48;100127.97;5014961;28;20295;-71
2021/01/13 11:37:22;;;;;;;1.37;0.43;;;;;;;-0.54;84.80;100131.72;5011067;28;20694;-72
2021/01/13 11:40:04;;;;;;;0.60;0.50;;;;;;;-0.55;84.71;100119.44;5018798;28;20199;-72
2021/01/13 11:43:09;;;;;;;0.47;0.20;;;;;;;-0.60;84.76;100130.16;5017103;28;20292;-71
2021/01/13 11:45:44;;;;;;;0.20;0.20;;;;;;;-0.66;84.84;100122.41;5015136;28;20197;-72
2021/01/13 11:48:15;;;;;;;3.63;0.50;;;;;;;-0.65;84.77;100124.13;5013150;28;20228;-72
2021/01/13 11:50:47;;;;;;;4.10;0.40;;;;;;;-0.58;84.41;100124.81;5009676;28;20239;-72
2021/01/13 11:53:21;;;;;;;0.63;0.20;;;;;;;-0.58;84.34;100127.47;5010624;28;20200;-72
2021/01/13 11:55:48;;;;;;;0.43;0.43;;;;;;;-0.72;84.68;100125.25;5015961;28;20218;-72
2021/01/13 11:58:16;;;;;;;0.87;0.50;;;;;;;-0.58;84.86;100140.63;5011800;28;20199;-72
2021/01/13 12:00:44;;;;;;;4.33;0.40;;;;;;;-0.65;84.27;100146.09;5010545;28;20228;-72
2021/01/13 12:03:18;;;;;;;0.40;0.40;;;;;;;-0.66;84.68;100148.78;5021711;28;20654;-72